sensor_id;sensor_type;location;lat;lon;timestamp;P1;durP1;ratioP1;P2;durP2;ratioP2
20739;SDS011;10530;49.968;19.844;2024-03-08T00:04:53;17.38;;;6.68;;
20739;SDS011;10530;49.968;19.844;2024-03-08T00:09:56;18.43;;;7.47;;
20739;SDS011;10530;49.968;19.844;2024-03-08T00:14:59;19.27;;;6.78;;
20739;SDS011;10530;49.968;19.844;2024-03-08T00:20:02;17.13;;;6.50;;
20739;SDS011;10530;49.968;19.844;2024-03-08T00:25:10;15.33;;;6.43;;
20739;SDS011;10530;49.968;19.844;2024-03-08T00:30:14;22.35;;;8.07;;
20739;SDS011;10530;49.968;19.844;2024-03-08T00:35:17;17.17;;;7.17;;
20739;SDS011;10530;49.968;19.844;2024-03-08T00:40:20;14.52;;;5.85;;
20739;SDS011;10530;49.968;19.844;2024-03-08T00:45:25;11.00;;;3.78;;
20739;SDS011;10530;49.968;19.844;2024-03-08T00:50:27;14.30;;;5.63;;
20739;SDS011;10530;49.968;19.844;2024-03-08T00:55:30;21.85;;;7.60;;
20739;SDS011;10530;49.968;19.844;2024-03-08T01:00:33;21.73;;;6.63;;
20739;SDS011;10530;49.968;19.844;2024-03-08T01:05:36;16.55;;;6.22;;
20739;SDS011;10530;49.968;19.844;2024-03-08T01:10:40;15.93;;;6.90;;
20739;SDS011;10530;49.968;19.844;2024-03-08T01:15:43;18.87;;;7.43;;
20739;SDS011;10530;49.968;19.844;2024-03-08T01:20:46;17.98;;;6.63;;
20739;SDS011;10530;49.968;19.844;2024-03-08T01:25:49;20.90;;;8.27;;
20739;SDS011;10530;49.968;19.844;2024-03-08T01:30:59;13.80;;;6.97;;
20739;SDS011;10530;49.968;19.844;2024-03-08T01:36:02;13.27;;;5.85;;
20739;SDS011;10530;49.968;19.844;2024-03-08T01:41:05;17.37;;;6.50;;
20739;SDS011;10530;49.968;19.844;2024-03-08T01:46:08;16.20;;;7.65;;
20739;SDS011;10530;49.968;19.844;2024-03-08T01:51:12;14.07;;;6.57;;
20739;SDS011;10530;49.968;19.844;2024-03-08T01:56:17;19.05;;;7.15;;
20739;SDS011;10530;49.968;19.844;2024-03-08T02:01:20;19.50;;;7.35;;
20739;SDS011;10530;49.968;19.844;2024-03-08T02:06:23;18.87;;;6.87;;
20739;SDS011;10530;49.968;19.844;2024-03-08T02:11:26;16.50;;;6.72;;
20739;SDS011;10530;49.968;19.844;2024-03-08T02:16:29;16.57;;;5.97;;
20739;SDS011;10530;49.968;19.844;2024-03-08T02:21:32;12.40;;;5.05;;
20739;SDS011;10530;49.968;19.844;2024-03-08T02:26:35;23.00;;;7.53;;
20739;SDS011;10530;49.968;19.844;2024-03-08T02:31:39;18.57;;;6.63;;
20739;SDS011;10530;49.968;19.844;2024-03-08T02:36:42;17.70;;;6.95;;
20739;SDS011;10530;49.968;19.844;2024-03-08T02:41:45;19.33;;;6.50;;
20739;SDS011;10530;49.968;19.844;2024-03-08T02:46:48;15.27;;;5.05;;
20739;SDS011;10530;49.968;19.844;2024-03-08T02:51:52;17.80;;;7.47;;
20739;SDS011;10530;49.968;19.844;2024-03-08T02:56:55;14.77;;;5.70;;
20739;SDS011;10530;49.968;19.844;2024-03-08T03:01:58;10.77;;;5.45;;
20739;SDS011;10530;49.968;19.844;2024-03-08T03:07:01;14.67;;;6.33;;
20739;SDS011;10530;49.968;19.844;2024-03-08T03:12:07;17.48;;;6.60;;
20739;SDS011;10530;49.968;19.844;2024-03-08T03:17:10;17.63;;;5.65;;
20739;SDS011;10530;49.968;19.844;2024-03-08T03:22:13;25.30;;;6.90;;
20739;SDS011;10530;49.968;19.844;2024-03-08T03:27:17;19.10;;;6.55;;
20739;SDS011;10530;49.968;19.844;2024-03-08T03:32:22;15.77;;;6.90;;
20739;SDS011;10530;49.968;19.844;2024-03-08T03:37:25;16.23;;;7.00;;
20739;SDS011;10530;49.968;19.844;2024-03-08T03:42:28;17.70;;;6.68;;
20739;SDS011;10530;49.968;19.844;2024-03-08T03:47:31;19.33;;;7.40;;
20739;SDS011;10530;49.968;19.844;2024-03-08T03:52:35;20.15;;;7.30;;
20739;SDS011;10530;49.968;19.844;2024-03-08T03:57:38;21.43;;;7.33;;
20739;SDS011;10530;49.968;19.844;2024-03-08T04:02:40;9.45;;;4.35;;
20739;SDS011;10530;49.968;19.844;2024-03-08T04:07:44;15.55;;;6.30;;
20739;SDS011;10530;49.968;19.844;2024-03-08T04:12:47;15.33;;;5.90;;
20739;SDS011;10530;49.968;19.844;2024-03-08T04:17:50;14.25;;;5.32;;
20739;SDS011;10530;49.968;19.844;2024-03-08T04:22:53;14.97;;;6.53;;
20739;SDS011;10530;49.968;19.844;2024-03-08T04:27:56;15.55;;;6.35;;
20739;SDS011;10530;49.968;19.844;2024-03-08T04:32:59;13.88;;;6.22;;
20739;SDS011;10530;49.968;19.844;2024-03-08T04:38:02;23.73;;;7.27;;
20739;SDS011;10530;49.968;19.844;2024-03-08T04:43:07;8.05;;;4.07;;
20739;SDS011;10530;49.968;19.844;2024-03-08T04:48:10;16.33;;;5.70;;
20739;SDS011;10530;49.968;19.844;2024-03-08T04:53:15;13.27;;;4.10;;
20739;SDS011;10530;49.968;19.844;2024-03-08T04:58:19;17.65;;;6.72;;
20739;SDS011;10530;49.968;19.844;2024-03-08T05:03:22;18.90;;;6.17;;
20739;SDS011;10530;49.968;19.844;2024-03-08T05:08:28;21.77;;;7.15;;
20739;SDS011;10530;49.968;19.844;2024-03-08T05:13:31;4.07;;;2.00;;
20739;SDS011;10530;49.968;19.844;2024-03-08T05:18:36;15.00;;;5.53;;
20739;SDS011;10530;49.968;19.844;2024-03-08T05:23:39;11.07;;;4.90;;
20739;SDS011;10530;49.968;19.844;2024-03-08T05:28:42;19.83;;;7.23;;
20739;SDS011;10530;49.968;19.844;2024-03-08T05:33:45;15.50;;;7.07;;
20739;SDS011;10530;49.968;19.844;2024-03-08T05:38:48;16.17;;;6.47;;
20739;SDS011;10530;49.968;19.844;2024-03-08T05:43:52;16.38;;;7.05;;
20739;SDS011;10530;49.968;19.844;2024-03-08T05:48:55;19.85;;;5.90;;
20739;SDS011;10530;49.968;19.844;2024-03-08T05:54:01;15.67;;;5.83;;
20739;SDS011;10530;49.968;19.844;2024-03-08T05:59:05;11.80;;;5.82;;
20739;SDS011;10530;49.968;19.844;2024-03-08T06:04:08;13.93;;;5.93;;
20739;SDS011;10530;49.968;19.844;2024-03-08T06:09:13;17.73;;;5.65;;
20739;SDS011;10530;49.968;19.844;2024-03-08T06:14:26;12.75;;;5.85;;
20739;SDS011;10530;49.968;19.844;2024-03-08T06:19:29;15.93;;;7.77;;
20739;SDS011;10530;49.968;19.844;2024-03-08T06:24:32;18.80;;;6.38;;
20739;SDS011;10530;49.968;19.844;2024-03-08T06:29:38;15.93;;;6.73;;
20739;SDS011;10530;49.968;19.844;2024-03-08T06:34:41;20.58;;;7.38;;
20739;SDS011;10530;49.968;19.844;2024-03-08T06:39:44;7.00;;;3.05;;
20739;SDS011;10530;49.968;19.844;2024-03-08T06:44:48;16.50;;;7.07;;
20739;SDS011;10530;49.968;19.844;2024-03-08T06:49:51;14.65;;;4.40;;
20739;SDS011;10530;49.968;19.844;2024-03-08T06:54:54;11.80;;;4.67;;
20739;SDS011;10530;49.968;19.844;2024-03-08T06:59:59;13.38;;;6.05;;
20739;SDS011;10530;49.968;19.844;2024-03-08T07:05:03;5.80;;;2.42;;
20739;SDS011;10530;49.968;19.844;2024-03-08T07:10:06;17.17;;;6.47;;
20739;SDS011;10530;49.968;19.844;2024-03-08T07:15:13;17.10;;;5.78;;
20739;SDS011;10530;49.968;19.844;2024-03-08T07:20:17;13.43;;;5.47;;
20739;SDS011;10530;49.968;19.844;2024-03-08T07:25:21;22.30;;;6.80;;
20739;SDS011;10530;49.968;19.844;2024-03-08T07:30:26;15.50;;;5.80;;
20739;SDS011;10530;49.968;19.844;2024-03-08T07:35:47;12.37;;;5.40;;
20739;SDS011;10530;49.968;19.844;2024-03-08T07:40:52;13.30;;;5.72;;
20739;SDS011;10530;49.968;19.844;2024-03-08T07:45:55;20.07;;;7.30;;
20739;SDS011;10530;49.968;19.844;2024-03-08T07:50:59;14.80;;;5.85;;
20739;SDS011;10530;49.968;19.844;2024-03-08T07:56:02;4.25;;;1.85;;
20739;SDS011;10530;49.968;19.844;2024-03-08T08:01:06;16.90;;;7.23;;
20739;SDS011;10530;49.968;19.844;2024-03-08T08:06:10;18.98;;;6.80;;
20739;SDS011;10530;49.968;19.844;2024-03-08T08:11:17;20.73;;;7.23;;
20739;SDS011;10530;49.968;19.844;2024-03-08T08:16:24;15.82;;;6.20;;
20739;SDS011;10530;49.968;19.844;2024-03-08T08:21:28;11.93;;;5.88;;
20739;SDS011;10530;49.968;19.844;2024-03-08T08:26:31;11.43;;;4.50;;
20739;SDS011;10530;49.968;19.844;2024-03-08T08:31:40;10.80;;;5.15;;
20739;SDS011;10530;49.968;19.844;2024-03-08T08:36:43;13.30;;;6.03;;
20739;SDS011;10530;49.968;19.844;2024-03-08T08:41:47;16.92;;;6.00;;
20739;SDS011;10530;49.968;19.844;2024-03-08T08:46:50;15.63;;;6.13;;
20739;SDS011;10530;49.968;19.844;2024-03-08T08:51:57;17.50;;;7.20;;
20739;SDS011;10530;49.968;19.844;2024-03-08T08:57:10;18.05;;;7.75;;
20739;SDS011;10530;49.968;19.844;2024-03-08T09:02:13;14.03;;;5.07;;
20739;SDS011;10530;49.968;19.844;2024-03-08T09:07:19;18.15;;;7.25;;
20739;SDS011;10530;49.968;19.844;2024-03-08T09:12:24;12.95;;;5.05;;
20739;SDS011;10530;49.968;19.844;2024-03-08T09:17:27;10.43;;;4.30;;
20739;SDS011;10530;49.968;19.844;2024-03-08T09:22:30;7.75;;;2.90;;
20739;SDS011;10530;49.968;19.844;2024-03-08T09:27:33;18.87;;;7.27;;
20739;SDS011;10530;49.968;19.844;2024-03-08T09:32:41;15.55;;;5.60;;
20739;SDS011;10530;49.968;19.844;2024-03-08T09:37:45;19.77;;;7.43;;
20739;SDS011;10530;49.968;19.844;2024-03-08T09:42:53;19.40;;;7.97;;
20739;SDS011;10530;49.968;19.844;2024-03-08T09:47:57;20.83;;;8.82;;
20739;SDS011;10530;49.968;19.844;2024-03-08T09:53:00;16.43;;;6.40;;
20739;SDS011;10530;49.968;19.844;2024-03-08T09:58:05;18.10;;;5.97;;
20739;SDS011;10530;49.968;19.844;2024-03-08T10:03:27;16.95;;;6.13;;
20739;SDS011;10530;49.968;19.844;2024-03-08T10:08:31;18.03;;;7.17;;
20739;SDS011;10530;49.968;19.844;2024-03-08T10:13:34;15.60;;;6.82;;
20739;SDS011;10530;49.968;19.844;2024-03-08T10:18:38;15.27;;;6.30;;
20739;SDS011;10530;49.968;19.844;2024-03-08T10:23:41;16.02;;;6.03;;
20739;SDS011;10530;49.968;19.844;2024-03-08T10:28:48;15.25;;;6.25;;
20739;SDS011;10530;49.968;19.844;2024-03-08T10:33:53;24.13;;;8.03;;
20739;SDS011;10530;49.968;19.844;2024-03-08T10:38:56;19.50;;;7.18;;
20739;SDS011;10530;49.968;19.844;2024-03-08T10:49:12;17.38;;;6.95;;
20739;SDS011;10530;49.968;19.844;2024-03-08T10:54:19;12.63;;;5.25;;
20739;SDS011;10530;49.968;19.844;2024-03-08T10:59:23;19.73;;;6.40;;
20739;SDS011;10530;49.968;19.844;2024-03-08T11:04:26;23.88;;;8.63;;
20739;SDS011;10530;49.968;19.844;2024-03-08T11:09:31;21.43;;;7.23;;
20739;SDS011;10530;49.968;19.844;2024-03-08T11:20:28;15.45;;;5.15;;
20739;SDS011;10530;49.968;19.844;2024-03-08T11:25:35;25.07;;;8.30;;
20739;SDS011;10530;49.968;19.844;2024-03-08T11:36:22;14.70;;;5.63;;
20739;SDS011;10530;49.968;19.844;2024-03-08T11:41:26;18.05;;;7.40;;
20739;SDS011;10530;49.968;19.844;2024-03-08T11:46:29;17.85;;;7.60;;
20739;SDS011;10530;49.968;19.844;2024-03-08T11:51:32;21.53;;;8.67;;
20739;SDS011;10530;49.968;19.844;2024-03-08T11:56:36;20.70;;;8.48;;
20739;SDS011;10530;49.968;19.844;2024-03-08T12:01:39;12.47;;;5.10;;
20739;SDS011;10530;49.968;19.844;2024-03-08T12:06:42;25.13;;;8.98;;
20739;SDS011;10530;49.968;19.844;2024-03-08T12:11:47;21.58;;;8.23;;
20739;SDS011;10530;49.968;19.844;2024-03-08T12:16:51;22.60;;;8.13;;
20739;SDS011;10530;49.968;19.844;2024-03-08T12:21:55;23.35;;;7.28;;
20739;SDS011;10530;49.968;19.844;2024-03-08T12:26:58;19.77;;;8.10;;
20739;SDS011;10530;49.968;19.844;2024-03-08T12:32:02;14.10;;;5.78;;
20739;SDS011;10530;49.968;19.844;2024-03-08T12:37:07;24.17;;;8.43;;
20739;SDS011;10530;49.968;19.844;2024-03-08T12:42:11;16.80;;;7.27;;
20739;SDS011;10530;49.968;19.844;2024-03-08T12:47:14;21.23;;;8.68;;
20739;SDS011;10530;49.968;19.844;2024-03-08T12:52:18;19.17;;;8.00;;
20739;SDS011;10530;49.968;19.844;2024-03-08T12:57:21;21.63;;;8.93;;
20739;SDS011;10530;49.968;19.844;2024-03-08T13:02:24;23.65;;;8.93;;
20739;SDS011;10530;49.968;19.844;2024-03-08T13:07:28;17.53;;;7.63;;
20739;SDS011;10530;49.968;19.844;2024-03-08T13:12:33;21.38;;;8.63;;
20739;SDS011;10530;49.968;19.844;2024-03-08T13:17:40;10.47;;;4.90;;
20739;SDS011;10530;49.968;19.844;2024-03-08T13:22:47;17.73;;;7.88;;
20739;SDS011;10530;49.968;19.844;2024-03-08T13:27:50;22.73;;;8.45;;
20739;SDS011;10530;49.968;19.844;2024-03-08T13:32:55;15.70;;;6.47;;
20739;SDS011;10530;49.968;19.844;2024-03-08T13:37:59;19.23;;;7.78;;
20739;SDS011;10530;49.968;19.844;2024-03-08T13:43:05;20.37;;;8.93;;
20739;SDS011;10530;49.968;19.844;2024-03-08T13:48:09;20.27;;;8.13;;
20739;SDS011;10530;49.968;19.844;2024-03-08T13:53:15;18.00;;;8.25;;
20739;SDS011;10530;49.968;19.844;2024-03-08T13:58:18;22.83;;;8.67;;
20739;SDS011;10530;49.968;19.844;2024-03-08T14:03:22;17.63;;;6.93;;
20739;SDS011;10530;49.968;19.844;2024-03-08T14:08:26;20.10;;;9.30;;
20739;SDS011;10530;49.968;19.844;2024-03-08T14:13:29;24.23;;;8.98;;
20739;SDS011;10530;49.968;19.844;2024-03-08T14:18:32;22.77;;;9.50;;
20739;SDS011;10530;49.968;19.844;2024-03-08T14:23:36;24.63;;;9.97;;
20739;SDS011;10530;49.968;19.844;2024-03-08T14:28:39;21.17;;;9.05;;
20739;SDS011;10530;49.968;19.844;2024-03-08T14:33:44;19.33;;;8.20;;
20739;SDS011;10530;49.968;19.844;2024-03-08T14:38:51;21.20;;;7.70;;
20739;SDS011;10530;49.968;19.844;2024-03-08T14:43:54;21.50;;;8.65;;
20739;SDS011;10530;49.968;19.844;2024-03-08T14:48:59;22.70;;;8.10;;
20739;SDS011;10530;49.968;19.844;2024-03-08T14:54:03;22.20;;;8.10;;
20739;SDS011;10530;49.968;19.844;2024-03-08T14:59:08;21.83;;;9.53;;
20739;SDS011;10530;49.968;19.844;2024-03-08T15:04:11;21.42;;;8.77;;
20739;SDS011;10530;49.968;19.844;2024-03-08T15:09:14;20.70;;;7.63;;
20739;SDS011;10530;49.968;19.844;2024-03-08T15:14:22;13.73;;;6.50;;
20739;SDS011;10530;49.968;19.844;2024-03-08T15:19:27;22.67;;;8.50;;
20739;SDS011;10530;49.968;19.844;2024-03-08T15:24:30;23.30;;;8.80;;
20739;SDS011;10530;49.968;19.844;2024-03-08T15:29:33;23.02;;;8.38;;
20739;SDS011;10530;49.968;19.844;2024-03-08T15:34:37;18.75;;;6.38;;
20739;SDS011;10530;49.968;19.844;2024-03-08T15:39:41;20.97;;;8.63;;
20739;SDS011;10530;49.968;19.844;2024-03-08T15:44:44;18.45;;;7.40;;
20739;SDS011;10530;49.968;19.844;2024-03-08T15:49:52;24.23;;;8.07;;
20739;SDS011;10530;49.968;19.844;2024-03-08T15:54:55;16.25;;;6.30;;
20739;SDS011;10530;49.968;19.844;2024-03-08T15:59:58;20.60;;;7.90;;
20739;SDS011;10530;49.968;19.844;2024-03-08T16:05:02;20.70;;;7.97;;
20739;SDS011;10530;49.968;19.844;2024-03-08T16:10:09;20.02;;;7.07;;
20739;SDS011;10530;49.968;19.844;2024-03-08T16:15:13;22.93;;;8.87;;
20739;SDS011;10530;49.968;19.844;2024-03-08T16:20:16;24.17;;;8.80;;
20739;SDS011;10530;49.968;19.844;2024-03-08T16:25:19;24.55;;;8.30;;
20739;SDS011;10530;49.968;19.844;2024-03-08T16:30:23;20.20;;;8.07;;
20739;SDS011;10530;49.968;19.844;2024-03-08T16:35:26;21.92;;;8.88;;
20739;SDS011;10530;49.968;19.844;2024-03-08T16:40:29;24.40;;;8.70;;
20739;SDS011;10530;49.968;19.844;2024-03-08T16:45:32;18.58;;;7.80;;
20739;SDS011;10530;49.968;19.844;2024-03-08T16:50:36;24.33;;;9.95;;
20739;SDS011;10530;49.968;19.844;2024-03-08T16:55:40;25.67;;;9.73;;
20739;SDS011;10530;49.968;19.844;2024-03-08T17:00:43;22.10;;;7.95;;
20739;SDS011;10530;49.968;19.844;2024-03-08T17:05:47;24.20;;;7.87;;
20739;SDS011;10530;49.968;19.844;2024-03-08T17:10:57;23.67;;;8.27;;
20739;SDS011;10530;49.968;19.844;2024-03-08T17:16:00;27.13;;;10.07;;
20739;SDS011;10530;49.968;19.844;2024-03-08T17:21:04;29.80;;;9.53;;
20739;SDS011;10530;49.968;19.844;2024-03-08T17:26:15;33.50;;;10.23;;
20739;SDS011;10530;49.968;19.844;2024-03-08T17:31:20;32.03;;;10.10;;
20739;SDS011;10530;49.968;19.844;2024-03-08T17:36:23;30.52;;;9.50;;
20739;SDS011;10530;49.968;19.844;2024-03-08T17:41:27;24.15;;;9.60;;
20739;SDS011;10530;49.968;19.844;2024-03-08T17:46:30;24.43;;;9.40;;
20739;SDS011;10530;49.968;19.844;2024-03-08T17:51:35;25.58;;;9.63;;
20739;SDS011;10530;49.968;19.844;2024-03-08T17:56:38;27.13;;;11.13;;
20739;SDS011;10530;49.968;19.844;2024-03-08T18:01:41;32.53;;;14.05;;
20739;SDS011;10530;49.968;19.844;2024-03-08T18:06:45;29.73;;;11.73;;
20739;SDS011;10530;49.968;19.844;2024-03-08T18:11:52;40.60;;;12.40;;
20739;SDS011;10530;49.968;19.844;2024-03-08T18:16:56;27.38;;;9.77;;
20739;SDS011;10530;49.968;19.844;2024-03-08T18:22:00;34.23;;;12.23;;
20739;SDS011;10530;49.968;19.844;2024-03-08T18:27:04;34.40;;;12.35;;
20739;SDS011;10530;49.968;19.844;2024-03-08T18:32:08;29.55;;;11.90;;
20739;SDS011;10530;49.968;19.844;2024-03-08T18:37:11;31.30;;;10.43;;
20739;SDS011;10530;49.968;19.844;2024-03-08T18:42:14;33.40;;;11.93;;
20739;SDS011;10530;49.968;19.844;2024-03-08T18:47:17;31.37;;;11.27;;
20739;SDS011;10530;49.968;19.844;2024-03-08T18:52:23;30.73;;;10.88;;
20739;SDS011;10530;49.968;19.844;2024-03-08T18:57:28;34.78;;;11.13;;
20739;SDS011;10530;49.968;19.844;2024-03-08T19:02:31;33.03;;;11.93;;
20739;SDS011;10530;49.968;19.844;2024-03-08T19:07:34;32.33;;;12.15;;
20739;SDS011;10530;49.968;19.844;2024-03-08T19:12:38;23.57;;;10.10;;
20739;SDS011;10530;49.968;19.844;2024-03-08T19:17:43;26.60;;;11.48;;
20739;SDS011;10530;49.968;19.844;2024-03-08T19:22:48;28.65;;;11.48;;
20739;SDS011;10530;49.968;19.844;2024-03-08T19:27:56;36.43;;;12.53;;
20739;SDS011;10530;49.968;19.844;2024-03-08T19:33:00;23.88;;;10.18;;
20739;SDS011;10530;49.968;19.844;2024-03-08T19:38:03;35.60;;;14.07;;
20739;SDS011;10530;49.968;19.844;2024-03-08T19:43:09;31.70;;;12.23;;
20739;SDS011;10530;49.968;19.844;2024-03-08T19:48:13;27.80;;;10.50;;
20739;SDS011;10530;49.968;19.844;2024-03-08T19:53:20;34.53;;;11.63;;
20739;SDS011;10530;49.968;19.844;2024-03-08T19:58:24;40.38;;;12.70;;
20739;SDS011;10530;49.968;19.844;2024-03-08T20:03:29;34.53;;;12.10;;
20739;SDS011;10530;49.968;19.844;2024-03-08T20:08:33;33.78;;;12.65;;
20739;SDS011;10530;49.968;19.844;2024-03-08T20:13:36;35.30;;;13.43;;
20739;SDS011;10530;49.968;19.844;2024-03-08T20:18:39;34.13;;;14.93;;
20739;SDS011;10530;49.968;19.844;2024-03-08T20:23:44;39.42;;;15.48;;
20739;SDS011;10530;49.968;19.844;2024-03-08T20:28:47;43.20;;;15.10;;
20739;SDS011;10530;49.968;19.844;2024-03-08T20:33:53;39.88;;;14.82;;
20739;SDS011;10530;49.968;19.844;2024-03-08T20:38:56;31.63;;;10.20;;
20739;SDS011;10530;49.968;19.844;2024-03-08T20:43:59;27.67;;;10.63;;
20739;SDS011;10530;49.968;19.844;2024-03-08T20:49:04;26.98;;;11.00;;
20739;SDS011;10530;49.968;19.844;2024-03-08T20:54:07;31.20;;;12.80;;
20739;SDS011;10530;49.968;19.844;2024-03-08T20:59:10;33.47;;;13.30;;
20739;SDS011;10530;49.968;19.844;2024-03-08T21:04:13;44.00;;;14.90;;
20739;SDS011;10530;49.968;19.844;2024-03-08T21:09:16;31.97;;;11.37;;
20739;SDS011;10530;49.968;19.844;2024-03-08T21:14:19;33.28;;;12.25;;
20739;SDS011;10530;49.968;19.844;2024-03-08T21:19:22;30.53;;;14.57;;
20739;SDS011;10530;49.968;19.844;2024-03-08T21:24:25;33.47;;;13.18;;
20739;SDS011;10530;49.968;19.844;2024-03-08T21:29:31;38.75;;;12.18;;
20739;SDS011;10530;49.968;19.844;2024-03-08T21:34:38;23.47;;;10.83;;
20739;SDS011;10530;49.968;19.844;2024-03-08T21:39:42;30.92;;;12.98;;
20739;SDS011;10530;49.968;19.844;2024-03-08T21:44:45;34.53;;;12.97;;
20739;SDS011;10530;49.968;19.844;2024-03-08T21:49:48;31.27;;;12.15;;
20739;SDS011;10530;49.968;19.844;2024-03-08T21:54:52;25.95;;;12.40;;
20739;SDS011;10530;49.968;19.844;2024-03-08T21:59:56;31.63;;;12.50;;
20739;SDS011;10530;49.968;19.844;2024-03-08T22:04:59;29.95;;;12.32;;
20739;SDS011;10530;49.968;19.844;2024-03-08T22:10:02;44.30;;;13.93;;
20739;SDS011;10530;49.968;19.844;2024-03-08T22:15:06;26.38;;;11.20;;
20739;SDS011;10530;49.968;19.844;2024-03-08T22:20:11;33.67;;;12.05;;
20739;SDS011;10530;49.968;19.844;2024-03-08T22:25:22;29.30;;;12.53;;
20739;SDS011;10530;49.968;19.844;2024-03-08T22:30:26;40.55;;;13.90;;
20739;SDS011;10530;49.968;19.844;2024-03-08T22:35:30;29.70;;;13.07;;
20739;SDS011;10530;49.968;19.844;2024-03-08T22:40:35;33.55;;;12.32;;
20739;SDS011;10530;49.968;19.844;2024-03-08T22:45:39;33.78;;;12.60;;
20739;SDS011;10530;49.968;19.844;2024-03-08T22:50:42;30.30;;;12.27;;
20739;SDS011;10530;49.968;19.844;2024-03-08T22:55:45;22.30;;;10.07;;
20739;SDS011;10530;49.968;19.844;2024-03-08T23:00:48;27.53;;;9.80;;
20739;SDS011;10530;49.968;19.844;2024-03-08T23:05:58;31.42;;;12.18;;
20739;SDS011;10530;49.968;19.844;2024-03-08T23:11:04;34.92;;;13.70;;
20739;SDS011;10530;49.968;19.844;2024-03-08T23:16:13;28.77;;;10.53;;
20739;SDS011;10530;49.968;19.844;2024-03-08T23:21:18;34.20;;;12.50;;
20739;SDS011;10530;49.968;19.844;2024-03-08T23:26:22;27.23;;;10.30;;
20739;SDS011;10530;49.968;19.844;2024-03-08T23:31:25;22.67;;;10.80;;
20739;SDS011;10530;49.968;19.844;2024-03-08T23:36:35;35.95;;;12.52;;
20739;SDS011;10530;49.968;19.844;2024-03-08T23:41:38;27.13;;;9.80;;
20739;SDS011;10530;49.968;19.844;2024-03-08T23:46:43;25.70;;;9.27;;
20739;SDS011;10530;49.968;19.844;2024-03-08T23:51:48;33.97;;;11.43;;
20739;SDS011;10530;49.968;19.844;2024-03-08T23:56:51;33.40;;;12.20;;
